createdAt,value
2022-08-17T00:00:43.100Z,10.13
2022-08-17T00:03:17.291Z,12.03
2022-08-17T00:05:51.054Z,9.50
2022-08-17T00:08:21.750Z,10.07
2022-08-17T00:10:50.849Z,10.40
2022-08-17T00:13:24.911Z,10.07
2022-08-17T00:15:54.005Z,10.37
2022-08-17T00:19:01.911Z,11.03
2022-08-17T00:21:12.105Z,9.47
2022-08-17T00:23:46.237Z,10.20
2022-08-17T00:26:43.190Z,10.57
2022-08-17T00:29:10.030Z,10.63
2022-08-17T00:31:48.645Z,10.20
2022-08-17T00:34:17.030Z,10.37
2022-08-17T00:36:46.086Z,10.93
2022-08-17T00:39:14.734Z,10.70
2022-08-17T00:41:43.084Z,11.40
2022-08-17T00:44:13.092Z,10.80
2022-08-17T00:46:45.387Z,10.73
2022-08-17T00:49:16.043Z,10.53
2022-08-17T00:51:50.583Z,10.60
2022-08-17T00:54:23.859Z,11.10
2022-08-17T00:56:56.656Z,10.47
2022-08-17T00:59:31.254Z,10.93
2022-08-17T01:02:00.900Z,12.30
2022-08-17T01:04:31.397Z,10.40
2022-08-17T01:07:02.367Z,10.83
2022-08-17T01:09:32.177Z,10.53
2022-08-17T01:12:01.984Z,11.40
2022-08-17T01:14:31.753Z,10.77
2022-08-17T01:17:01.075Z,10.83
2022-08-17T01:19:34.592Z,10.47
2022-08-17T01:22:07.878Z,10.30
2022-08-17T01:24:39.389Z,10.30
2022-08-17T01:27:10.657Z,11.33
2022-08-17T01:29:42.315Z,11.27
2022-08-17T01:32:11.436Z,11.40
2022-08-17T01:34:42.614Z,11.90
2022-08-17T01:37:12.738Z,12.53
2022-08-17T01:39:46.309Z,11.47
2022-08-17T01:42:22.814Z,15.53
2022-08-17T01:44:56.368Z,14.77
2022-08-17T01:47:25.008Z,15.17
2022-08-17T01:49:53.339Z,16.93
2022-08-17T01:52:23.979Z,17.33
2022-08-17T01:54:55.203Z,17.47
2022-08-17T01:57:23.481Z,20.80
2022-08-17T01:59:51.983Z,19.30
2022-08-17T02:02:31.366Z,20.40
2022-08-17T02:05:00.393Z,22.53
2022-08-17T02:07:29.270Z,24.97
2022-08-17T02:09:59.616Z,24.13
2022-08-17T02:12:37.991Z,24.20
2022-08-17T02:15:12.862Z,23.90
2022-08-17T02:17:41.806Z,26.73
2022-08-17T02:20:11.473Z,26.40
2022-08-17T02:22:42.317Z,30.03
2022-08-17T02:25:20.103Z,24.93
2022-08-17T02:27:48.577Z,27.97
2022-08-17T02:30:49.886Z,24.03
2022-08-17T02:33:09.263Z,23.13
2022-08-17T02:35:38.233Z,23.53
2022-08-17T02:38:08.155Z,27.90
2022-08-17T02:40:40.791Z,22.90
2022-08-17T02:45:53.823Z,29.17
2022-08-17T02:48:30.579Z,24.80
2022-08-17T02:51:00.197Z,24.50
2022-08-17T02:53:31.820Z,25.43
2022-08-17T02:58:48.460Z,24.43
2022-08-17T03:01:17.212Z,24.90
2022-08-17T03:03:48.469Z,24.87
2022-08-17T03:06:19.555Z,27.30
2022-08-17T03:08:47.655Z,25.30
2022-08-17T03:11:17.460Z,24.47
2022-08-17T03:13:47.414Z,24.70
2022-08-17T03:16:17.887Z,24.27
2022-08-17T03:18:48.773Z,23.53
2022-08-17T03:21:17.331Z,24.27
2022-08-17T03:23:45.928Z,24.87
2022-08-17T03:26:16.237Z,24.93
2022-08-17T03:28:46.073Z,26.43
2022-08-17T03:31:14.720Z,26.17
2022-08-17T03:33:45.898Z,26.03
2022-08-17T03:36:14.135Z,24.90
2022-08-17T03:38:42.497Z,25.10
2022-08-17T03:41:14.285Z,28.50
2022-08-17T03:43:42.639Z,27.83
2022-08-17T03:46:35.273Z,26.33
2022-08-17T03:49:22.934Z,23.10
2022-08-17T03:52:10.437Z,22.73
2022-08-17T03:54:56.440Z,23.53
2022-08-17T03:57:26.071Z,23.83
2022-08-17T03:59:55.066Z,20.70
2022-08-17T04:02:28.516Z,21.27
2022-08-17T04:04:57.300Z,21.83
2022-08-17T04:07:28.624Z,20.73
2022-08-17T04:09:58.335Z,20.83
2022-08-17T04:12:31.379Z,19.67
2022-08-17T04:15:00.441Z,19.73
2022-08-17T04:17:31.107Z,19.90
2022-08-17T04:19:59.408Z,18.17
2022-08-17T04:22:31.159Z,18.30
2022-08-17T04:25:03.656Z,18.50
2022-08-17T04:27:32.169Z,17.43
2022-08-17T04:30:00.339Z,18.50
2022-08-17T04:33:03.665Z,20.10
2022-08-17T04:35:23.440Z,17.70
2022-08-17T04:37:51.884Z,16.63
2022-08-17T04:40:38.880Z,16.30
2022-08-17T04:43:10.286Z,17.70
2022-08-17T04:45:51.207Z,17.43
2022-08-17T04:48:29.980Z,17.23
2022-08-17T04:51:05.515Z,16.57
2022-08-17T04:53:33.931Z,15.53
2022-08-17T04:56:02.701Z,15.87
2022-08-17T04:58:31.606Z,15.13
2022-08-17T05:01:00.282Z,15.90
2022-08-17T05:03:30.427Z,15.37
2022-08-17T05:05:58.761Z,14.97
2022-08-17T05:08:27.698Z,15.07
2022-08-17T05:10:56.103Z,13.63
2022-08-17T05:13:25.999Z,14.67
2022-08-17T05:15:59.733Z,13.97
2022-08-17T05:18:30.794Z,13.33
2022-08-17T05:20:59.671Z,14.53
2022-08-17T05:23:42.086Z,12.90
2022-08-17T05:26:21.952Z,13.27
2022-08-17T05:29:00.496Z,12.80
2022-08-17T05:31:31.791Z,13.53
2022-08-17T05:34:01.589Z,11.90
2022-08-17T05:36:41.902Z,11.90
2022-08-17T05:39:17.538Z,12.70
2022-08-17T05:41:49.008Z,11.23
2022-08-17T05:44:18.188Z,10.83
2022-08-17T05:46:52.552Z,10.10
2022-08-17T05:49:28.944Z,9.97
2022-08-17T05:52:10.486Z,9.63
2022-08-17T05:54:53.885Z,9.63
2022-08-17T05:57:42.444Z,9.60
2022-08-17T06:00:30.327Z,9.00
2022-08-17T06:03:30.234Z,9.23
2022-08-17T06:06:31.366Z,9.40
2022-08-17T06:09:13.028Z,9.20
2022-08-17T06:11:53.353Z,8.87
2022-08-17T06:14:54.373Z,9.77
2022-08-17T06:17:27.344Z,8.67
2022-08-17T06:19:59.843Z,9.77
2022-08-17T06:22:34.510Z,11.43
2022-08-17T06:25:10.243Z,10.30
2022-08-17T06:27:42.984Z,10.70
2022-08-17T06:30:15.439Z,10.67
2022-08-17T06:32:46.592Z,10.77
2022-08-17T06:35:18.515Z,11.00
2022-08-17T06:38:04.464Z,11.77
2022-08-17T06:40:55.696Z,10.70
2022-08-17T06:43:47.528Z,11.87
2022-08-17T06:46:23.571Z,11.10
2022-08-17T06:49:08.392Z,11.40
2022-08-17T06:51:40.802Z,10.80
2022-08-17T06:54:16.996Z,10.20
2022-08-17T06:56:54.566Z,10.13
2022-08-17T06:59:54.221Z,9.80
2022-08-17T07:02:29.072Z,9.80
2022-08-17T07:05:11.558Z,13.23
2022-08-17T07:08:04.108Z,10.77
2022-08-17T07:10:47.138Z,10.23
2022-08-17T07:13:29.603Z,9.10
2022-08-17T07:16:12.822Z,10.43
2022-08-17T07:18:40.933Z,9.03
2022-08-17T07:21:26.476Z,9.50
2022-08-17T07:24:08.046Z,9.70
2022-08-17T07:26:39.089Z,9.13
2022-08-17T07:29:07.424Z,10.30
2022-08-17T07:31:35.627Z,9.40
2022-08-17T07:34:09.150Z,9.00
2022-08-17T07:36:37.367Z,8.93
2022-08-17T07:39:06.569Z,10.00
2022-08-17T07:41:53.098Z,10.13
2022-08-17T07:44:27.740Z,10.93
2022-08-17T07:47:13.769Z,9.63
2022-08-17T07:49:49.041Z,10.70
2022-08-17T07:52:50.733Z,10.67
2022-08-17T07:55:29.598Z,11.23
2022-08-17T07:58:01.020Z,10.27
2022-08-17T08:00:31.962Z,11.30
2022-08-17T08:03:15.269Z,11.47
2022-08-17T08:05:52.406Z,10.20
2022-08-17T08:08:31.274Z,10.50
2022-08-17T08:11:04.378Z,10.60
2022-08-17T08:13:35.983Z,9.40
2022-08-17T08:16:25.540Z,9.60
2022-08-17T08:18:58.013Z,10.80
2022-08-17T08:21:37.537Z,10.20
2022-08-17T08:24:30.169Z,9.70
2022-08-17T08:27:16.615Z,9.93
2022-08-17T08:29:55.426Z,8.80
2022-08-17T08:32:37.126Z,9.27
2022-08-17T08:35:09.207Z,8.90
2022-08-17T08:37:49.603Z,9.40
2022-08-17T08:40:36.319Z,9.57
2022-08-17T08:43:18.481Z,8.40
2022-08-17T08:45:56.904Z,8.47
2022-08-17T08:48:58.026Z,8.20
2022-08-17T08:51:39.205Z,7.87
2022-08-17T08:54:26.607Z,7.87
2022-08-17T08:57:23.182Z,7.80
2022-08-17T09:00:01.897Z,7.90
2022-08-17T09:02:56.942Z,8.27
2022-08-17T09:05:39.357Z,8.13
2022-08-17T09:08:26.077Z,7.33
2022-08-17T09:11:03.162Z,7.67
2022-08-17T09:13:40.920Z,7.20
2022-08-17T09:16:15.443Z,7.43
2022-08-17T09:19:03.326Z,7.17
2022-08-17T09:21:48.385Z,7.60
2022-08-17T09:24:24.496Z,7.23
2022-08-17T09:26:59.583Z,7.40
2022-08-17T09:29:32.696Z,7.80
2022-08-17T09:32:03.869Z,7.37
2022-08-17T09:34:43.513Z,7.40
2022-08-17T09:37:21.276Z,7.87
2022-08-17T09:39:56.798Z,7.33
2022-08-17T09:42:30.046Z,7.40
2022-08-17T09:45:17.062Z,7.27
2022-08-17T09:47:51.610Z,8.07
2022-08-17T09:51:04.456Z,8.03
2022-08-17T09:53:13.719Z,7.20
2022-08-17T09:56:01.768Z,7.20
2022-08-17T09:58:41.366Z,6.97
2022-08-17T10:01:18.446Z,6.97
2022-08-17T10:04:08.065Z,7.30
2022-08-17T10:06:48.210Z,6.97
2022-08-17T10:09:38.409Z,7.10
2022-08-17T10:12:21.771Z,7.67
2022-08-17T10:15:16.018Z,7.70
2022-08-17T10:17:56.658Z,7.33
2022-08-17T10:20:30.762Z,6.70
2022-08-17T10:23:21.963Z,7.53
2022-08-17T10:26:11.665Z,7.13
2022-08-17T10:28:46.039Z,7.07
2022-08-17T10:31:34.807Z,7.57
2022-08-17T10:34:34.190Z,7.70
2022-08-17T10:37:16.449Z,7.00
2022-08-17T10:39:59.290Z,7.90
2022-08-17T10:42:33.351Z,8.20
2022-08-17T10:45:06.710Z,7.57
2022-08-17T10:48:05.270Z,7.90
2022-08-17T10:50:50.573Z,7.17
2022-08-17T10:54:00.587Z,7.83
2022-08-17T10:56:51.706Z,7.77
2022-08-17T10:59:53.743Z,8.57
2022-08-17T11:02:28.415Z,7.70
2022-08-17T11:05:16.225Z,7.70
2022-08-17T11:08:01.938Z,8.03
2022-08-17T11:10:51.968Z,7.77
2022-08-17T11:13:35.805Z,8.60
2022-08-17T11:16:24.954Z,8.77
2022-08-17T11:19:21.332Z,10.33
2022-08-17T11:22:11.916Z,9.23
2022-08-17T11:24:43.395Z,9.33
2022-08-17T11:27:26.646Z,8.60
2022-08-17T11:30:02.133Z,8.17
2022-08-17T11:32:37.053Z,7.60
2022-08-17T11:35:13.628Z,7.50
2022-08-17T11:37:52.012Z,7.40
2022-08-17T11:41:03.623Z,7.70
2022-08-17T11:44:15.468Z,7.73
2022-08-17T11:47:18.700Z,7.60
2022-08-17T11:50:25.716Z,9.13
2022-08-17T11:52:56.285Z,8.23
2022-08-17T11:56:02.094Z,8.47
2022-08-17T11:58:48.421Z,8.23
2022-08-17T12:01:57.169Z,8.50
2022-08-17T12:04:29.718Z,7.80
2022-08-17T12:07:01.691Z,8.40
2022-08-17T12:09:33.427Z,8.80
2022-08-17T12:12:13.431Z,8.40
2022-08-17T12:15:09.724Z,8.70
2022-08-17T12:17:41.419Z,9.27
2022-08-17T12:20:24.465Z,8.33
2022-08-17T12:23:01.423Z,8.57
2022-08-17T12:25:38.914Z,8.93
2022-08-17T12:28:27.851Z,7.53
2022-08-17T12:31:00.679Z,9.40
2022-08-17T12:33:30.565Z,9.37
2022-08-17T12:36:03.451Z,8.80
2022-08-17T12:38:34.664Z,9.23
2022-08-17T12:41:25.709Z,8.27
2022-08-17T12:44:02.201Z,8.70
2022-08-17T12:46:33.782Z,8.63
2022-08-17T12:49:22.976Z,8.63
2022-08-17T12:51:54.382Z,8.83
2022-08-17T12:54:29.312Z,8.53
2022-08-17T12:57:02.416Z,8.27
2022-08-17T12:59:33.142Z,7.80
2022-08-17T13:02:02.406Z,8.03
2022-08-17T13:04:33.186Z,8.50
2022-08-17T13:07:01.456Z,7.87
2022-08-17T13:09:33.564Z,7.77
2022-08-17T13:12:08.673Z,7.90
2022-08-17T13:14:37.055Z,7.90
2022-08-17T13:17:11.034Z,8.20
2022-08-17T13:19:49.825Z,8.30
2022-08-17T13:22:23.588Z,7.53
2022-08-17T13:24:54.674Z,6.87
2022-08-17T13:27:25.317Z,7.47
2022-08-17T13:29:57.723Z,7.53
2022-08-17T13:32:37.146Z,9.27
2022-08-17T13:35:39.870Z,8.57
2022-08-17T13:38:10.624Z,8.70
2022-08-17T13:40:42.950Z,8.53
2022-08-17T13:43:12.137Z,8.73
2022-08-17T13:45:52.280Z,8.10
2022-08-17T13:48:24.196Z,9.00
2022-08-17T13:51:19.070Z,8.30
2022-08-17T13:54:06.767Z,8.50
2022-08-17T13:56:56.288Z,8.13
2022-08-17T13:59:53.761Z,9.20
2022-08-17T14:02:27.933Z,8.27
2022-08-17T14:04:58.512Z,8.63
2022-08-17T14:07:37.234Z,9.10
2022-08-17T14:10:11.360Z,8.37
2022-08-17T14:12:42.469Z,10.00
2022-08-17T14:15:12.965Z,9.77
2022-08-17T14:17:41.286Z,8.93
2022-08-17T14:20:12.926Z,9.10
2022-08-17T14:22:46.352Z,9.67
2022-08-17T14:25:16.731Z,9.17
2022-08-17T14:27:52.168Z,9.10
2022-08-17T14:30:23.628Z,8.63
2022-08-17T14:32:52.898Z,9.00
2022-08-17T14:35:23.940Z,8.63
2022-08-17T14:37:54.498Z,9.43
2022-08-17T14:40:25.572Z,8.80
2022-08-17T14:42:55.653Z,8.63
2022-08-17T14:45:30.314Z,8.43
2022-08-17T14:48:01.435Z,9.13
2022-08-17T14:50:29.525Z,9.00
2022-08-17T14:53:01.954Z,8.10
2022-08-17T14:55:33.003Z,8.90
2022-08-17T14:58:01.187Z,8.77
2022-08-17T15:00:29.661Z,8.87
2022-08-17T15:03:00.211Z,8.80
2022-08-17T15:05:31.769Z,8.80
2022-08-17T15:08:02.420Z,8.40
2022-08-17T15:10:32.018Z,8.83
2022-08-17T15:13:00.686Z,9.23
2022-08-17T15:15:29.704Z,8.70
2022-08-17T15:17:59.880Z,8.90
2022-08-17T15:20:31.353Z,8.60
2022-08-17T15:23:01.705Z,8.53
2022-08-17T15:25:33.248Z,9.43
2022-08-17T15:28:02.519Z,9.17
2022-08-17T15:30:31.804Z,9.13
2022-08-17T15:33:01.332Z,10.13
2022-08-17T15:35:32.041Z,10.60
2022-08-17T15:38:10.154Z,10.00
2022-08-17T15:40:44.141Z,9.73
2022-08-17T15:43:15.416Z,9.87
2022-08-17T15:45:44.449Z,9.60
2022-08-17T15:48:25.123Z,9.90
2022-08-17T15:50:54.596Z,9.80
2022-08-17T15:53:24.220Z,9.33
2022-08-17T15:55:52.648Z,8.70
2022-08-17T15:58:20.957Z,9.60
2022-08-17T16:01:15.039Z,8.93
2022-08-17T16:04:03.883Z,9.03
2022-08-17T16:06:35.279Z,9.07
2022-08-17T16:09:05.697Z,8.40
2022-08-17T16:11:33.838Z,9.07
2022-08-17T16:14:02.618Z,8.50
2022-08-17T16:16:31.477Z,9.20
2022-08-17T16:18:59.753Z,8.73
2022-08-17T16:21:31.234Z,9.07
2022-08-17T16:24:14.840Z,8.73
2022-08-17T16:26:43.712Z,8.87
2022-08-17T16:29:12.251Z,9.60
2022-08-17T16:31:43.905Z,9.00
2022-08-17T16:34:18.678Z,10.37
2022-08-17T16:36:54.689Z,10.10
2022-08-17T16:39:27.606Z,9.57
2022-08-17T16:41:58.387Z,9.87
2022-08-17T16:44:31.878Z,10.00
2022-08-17T16:47:00.832Z,10.10
2022-08-17T16:49:36.620Z,10.07
2022-08-17T16:52:10.724Z,11.20
2022-08-17T16:54:44.127Z,9.63
2022-08-17T16:57:13.405Z,10.67
2022-08-17T16:59:45.012Z,10.40
2022-08-17T17:02:17.713Z,11.40
2022-08-17T17:04:55.531Z,10.27
2022-08-17T17:07:50.219Z,11.00
2022-08-17T17:10:23.629Z,9.60
2022-08-17T17:13:02.835Z,9.23
2022-08-17T17:15:47.383Z,9.87
2022-08-17T17:18:17.280Z,8.57
2022-08-17T17:20:53.596Z,9.00
2022-08-17T17:23:39.341Z,10.07
2022-08-17T17:26:33.137Z,10.17
2022-08-17T17:29:20.950Z,10.20
2022-08-17T17:31:57.663Z,9.97
2022-08-17T17:34:30.436Z,9.67
2022-08-17T17:37:03.163Z,10.13
2022-08-17T17:39:41.678Z,10.07
2022-08-17T17:42:20.054Z,10.50
2022-08-17T17:44:52.418Z,10.70
2022-08-17T17:47:21.202Z,10.97
2022-08-17T17:49:50.003Z,10.40
2022-08-17T17:52:26.356Z,9.77
2022-08-17T17:55:06.829Z,10.10
2022-08-17T17:57:50.534Z,10.23
2022-08-17T18:00:23.623Z,10.63
2022-08-17T18:03:11.357Z,9.47
2022-08-17T18:06:19.973Z,10.20
2022-08-17T18:09:06.388Z,10.10
2022-08-17T18:12:04.703Z,10.67
2022-08-17T18:14:58.324Z,10.17
2022-08-17T18:17:29.638Z,11.53
2022-08-17T18:19:58.396Z,10.77
2022-08-17T18:22:27.857Z,10.87
2022-08-17T18:24:57.395Z,11.30
2022-08-17T18:27:32.565Z,11.43
2022-08-17T18:30:09.172Z,11.57
2022-08-17T18:32:41.028Z,12.03
2022-08-17T18:35:30.255Z,11.73
2022-08-17T18:38:20.519Z,12.17
2022-08-17T18:40:59.490Z,10.97
2022-08-17T18:43:43.789Z,11.13
2022-08-17T18:46:28.140Z,12.10
2022-08-17T18:49:00.191Z,12.63
2022-08-17T18:51:41.685Z,11.67
2022-08-17T18:54:20.866Z,12.70
2022-08-17T18:56:55.651Z,13.53
2022-08-17T18:59:28.538Z,12.40
2022-08-17T19:02:32.489Z,11.77
2022-08-17T19:05:13.710Z,12.60
2022-08-17T19:07:45.338Z,10.73
2022-08-17T19:10:22.525Z,11.70
2022-08-17T19:13:00.594Z,11.00
2022-08-17T19:15:34.546Z,11.27
2022-08-17T19:18:15.133Z,11.90
2022-08-17T19:20:49.127Z,12.20
2022-08-17T19:23:23.969Z,11.03
2022-08-17T19:25:55.728Z,11.57
2022-08-17T19:28:28.722Z,11.83
2022-08-17T19:30:59.693Z,11.50
2022-08-17T19:33:30.119Z,11.90
2022-08-17T19:36:07.420Z,12.23
2022-08-17T19:38:47.040Z,12.90
2022-08-17T19:41:23.918Z,11.97
2022-08-17T19:44:19.293Z,12.43
2022-08-17T19:46:56.260Z,11.47
2022-08-17T19:49:41.865Z,12.10
2022-08-17T19:52:24.273Z,12.20
2022-08-17T19:54:59.021Z,12.13
2022-08-17T19:57:40.889Z,12.57
2022-08-17T20:00:15.488Z,12.43
2022-08-17T20:02:51.443Z,13.17
2022-08-17T20:05:25.029Z,13.37
2022-08-17T20:07:58.699Z,13.03
2022-08-17T20:10:38.822Z,13.23
2022-08-17T20:13:11.223Z,14.20
2022-08-17T20:15:43.624Z,13.37
2022-08-17T20:18:19.695Z,12.47
2022-08-17T20:20:58.398Z,13.30
2022-08-17T20:23:45.470Z,13.57
2022-08-17T20:26:21.577Z,14.73
2022-08-17T20:29:37.736Z,12.47
2022-08-17T20:32:25.264Z,13.53
2022-08-17T20:35:07.047Z,15.27
2022-08-17T20:37:43.233Z,13.77
2022-08-17T20:40:37.538Z,13.30
2022-08-17T20:43:51.156Z,14.03
2022-08-17T20:46:31.843Z,13.43
2022-08-17T20:49:24.353Z,14.33
2022-08-17T20:52:01.424Z,15.30
2022-08-17T20:54:50.333Z,15.37
2022-08-17T20:57:45.016Z,14.97
2022-08-17T21:00:18.251Z,16.10
2022-08-17T21:02:53.144Z,15.93
2022-08-17T21:05:32.440Z,16.13
2022-08-17T21:08:20.370Z,15.63
2022-08-17T21:10:50.187Z,16.60
2022-08-17T21:13:42.256Z,15.80
2022-08-17T21:16:41.502Z,14.77
2022-08-17T21:19:31.298Z,15.43
2022-08-17T21:22:14.555Z,13.40
2022-08-17T21:24:55.079Z,14.67
2022-08-17T21:27:36.063Z,14.97
2022-08-17T21:30:24.595Z,15.83
2022-08-17T21:33:28.278Z,17.60
2022-08-17T21:36:27.275Z,14.83
2022-08-17T21:39:08.775Z,15.70
2022-08-17T21:41:48.384Z,17.30
2022-08-17T21:44:31.760Z,15.67
2022-08-17T21:47:15.266Z,16.80
2022-08-17T21:49:43.875Z,14.20
2022-08-17T21:52:15.864Z,14.90
2022-08-17T21:54:51.312Z,14.37
2022-08-17T21:57:23.023Z,15.63
2022-08-17T22:00:01.666Z,16.33
2022-08-17T22:02:33.785Z,14.70
2022-08-17T22:05:04.238Z,16.00
2022-08-17T22:07:39.917Z,13.60
2022-08-17T22:10:27.923Z,13.13
2022-08-17T22:13:16.725Z,14.10
2022-08-17T22:15:48.956Z,14.83
2022-08-17T22:18:23.367Z,11.53
2022-08-17T22:20:54.621Z,12.17
2022-08-17T22:23:43.567Z,9.63
2022-08-17T22:26:17.382Z,8.77
2022-08-17T22:28:48.984Z,8.60
2022-08-17T22:31:19.988Z,7.60
2022-08-17T22:33:50.313Z,7.50
2022-08-17T22:36:25.223Z,7.90
2022-08-17T22:38:54.760Z,7.60
2022-08-17T22:41:41.981Z,8.50
2022-08-17T22:44:20.500Z,8.03
2022-08-17T22:46:59.281Z,7.83
2022-08-17T22:49:31.171Z,8.27
2022-08-17T22:52:24.016Z,7.43
2022-08-17T22:55:31.141Z,7.50
2022-08-17T22:58:17.280Z,6.50
2022-08-17T23:00:47.937Z,5.27
2022-08-17T23:03:20.242Z,5.07
2022-08-17T23:06:03.650Z,5.30
2022-08-17T23:08:34.867Z,5.30
2022-08-17T23:11:03.273Z,4.63
2022-08-17T23:13:33.627Z,4.40
2022-08-17T23:16:02.614Z,4.23
2022-08-17T23:18:32.293Z,3.70
2022-08-17T23:21:01.356Z,3.50
2022-08-17T23:23:31.726Z,3.40
2022-08-17T23:25:59.791Z,3.00
2022-08-17T23:28:28.621Z,3.40
2022-08-17T23:30:56.909Z,3.37
2022-08-17T23:33:30.066Z,2.87
2022-08-17T23:36:00.031Z,2.60
2022-08-17T23:38:29.026Z,3.27
2022-08-17T23:41:00.340Z,2.53
2022-08-17T23:43:31.450Z,2.90
2022-08-17T23:46:03.952Z,2.43
2022-08-17T23:48:36.345Z,2.73
2022-08-17T23:51:11.973Z,2.90
2022-08-17T23:53:47.762Z,2.97
2022-08-17T23:56:18.009Z,2.73
2022-08-17T23:58:49.590Z,2.50
